Time;durP1;ratioP1;P1;durP2;ratioP2;P2;SDS_P1;SDS_P2;PMS_P1;PMS_P2;Temp;Humidity;BMP_temperature;BMP_pressure;BME280_temperature;BME280_humidity;BME280_pressure;Samples;Min_cycle;Max_cycle;Signal;HPM_P1;HPM_P2
2022/12/15 00:40:57;;;;;;;;;36.75;27.00;;;;;1.13;60.63;100348.31;5039660;28;45883;-78
2022/12/15 00:43:23;;;;;;;;;30.00;26.00;;;;;1.13;60.37;100343.19;5037819;28;45274;-77
2022/12/15 00:48:32;;;;;;;;;34.25;22.25;;;;;1.07;60.55;100349.16;5022602;28;45380;-78
2022/12/15 00:50:58;;;;;;;;;32.25;27.50;;;;;1.05;60.71;100355.13;5037030;28;65445;-77
2022/12/15 01:20:44;;;;;;;;;35.00;23.75;;;;;0.82;61.35;100340.50;5037160;28;45465;-77
2022/12/15 01:23:10;;;;;;;;;29.75;22.00;;;;;0.80;61.33;100347.34;5018660;28;69948;-77
2022/12/15 01:25:37;;;;;;;;;41.00;31.50;;;;;0.76;61.37;100350.72;5019596;28;45549;-77
2022/12/15 01:28:02;;;;;;;;;32.25;24.75;;;;;0.72;62.08;100354.97;5037266;28;45400;-77
2022/12/15 01:30:27;;;;;;;;;35.75;22.50;;;;;0.70;62.07;100340.44;5036556;28;47309;-77
2022/12/15 01:32:53;;;;;;;;;33.25;21.00;;;;;0.66;61.38;100346.41;5036929;28;47333;-78
2022/12/15 01:35:19;;;;;;;;;38.25;26.75;;;;;0.63;61.75;100351.50;5019501;28;45414;-77
2022/12/15 01:37:44;;;;;;;;;35.75;27.50;;;;;0.58;62.05;100360.03;5019188;28;45310;-77
2022/12/15 01:43:09;;;;;;;;;41.25;27.50;;;;;0.51;62.64;100365.09;5017036;28;45527;-77
2022/12/15 01:45:51;;;;;;;;;35.25;24.25;;;;;0.47;62.39;100374.47;5015704;28;45419;-77
2022/12/15 01:48:23;;;;;;;;;28.00;22.00;;;;;0.47;62.33;100376.19;5015674;28;45421;-77
2022/12/15 01:50:58;;;;;;;;;39.25;24.25;;;;;0.48;62.58;100375.31;5016786;28;46021;-77
2022/12/15 01:53:24;;;;;;;;;36.50;27.50;;;;;0.48;62.43;100371.03;5015523;28;46117;-77
2022/12/15 01:55:49;;;;;;;;;31.25;19.00;;;;;0.49;62.25;100372.78;5015640;28;45330;-77
2022/12/15 01:58:16;;;;;;;;;27.25;22.50;;;;;0.48;62.54;100377.88;5014441;28;63860;-77
2022/12/15 02:00:42;;;;;;;;;30.00;26.00;;;;;0.46;62.46;100377.88;4999020;28;45674;-78
2022/12/15 02:03:08;;;;;;;;;38.25;23.50;;;;;0.44;62.88;100371.88;5054025;28;45457;-77
2022/12/15 02:05:34;;;;;;;;;38.75;31.00;;;;;0.42;62.55;100380.41;5039137;28;45438;-77
2022/12/15 02:08:00;;;;;;;;;40.50;24.50;;;;;0.40;62.66;100382.97;5038511;28;45458;-77
2022/12/15 02:10:30;;;;;;;;;39.75;27.50;;;;;0.37;62.41;100385.47;5056689;28;45932;-77
2022/12/15 02:13:22;;;;;;;;;23.25;21.25;;;;;0.31;62.51;100378.63;5038285;28;45842;-77
2022/12/15 02:15:53;;;;;;;;;44.50;27.25;;;;;0.31;62.59;100372.66;5030579;28;45410;-77
2022/12/15 02:19:13;;;;;;;;;28.50;22.00;;;;;0.30;62.80;100369.25;5056493;28;45622;-77
2022/12/15 02:22:04;;;;;;;;;35.75;25.50;;;;;0.27;63.07;100361.53;4935134;28;45416;-77
2022/12/15 02:24:29;;;;;;;;;26.00;22.00;;;;;0.26;62.68;100362.38;4935839;28;46112;-77
2022/12/15 02:27:13;;;;;;;;;30.00;18.00;;;;;0.25;62.80;100370.06;4936005;28;45446;-77
2022/12/15 02:29:38;;;;;;;;;28.50;25.50;;;;;0.20;62.87;100367.44;4935806;28;45329;-77
2022/12/15 02:32:09;;;;;;;;;33.33;24.33;;;;;0.16;63.06;100369.13;4935634;28;46652;-77
2022/12/15 02:35:04;;;;;;;;;32.75;24.50;;;;;0.17;62.94;100362.31;4935664;28;45433;-77
2022/12/15 02:37:34;;;;;;;;;30.75;22.25;;;;;0.16;63.10;100361.44;4935822;28;45378;-76
2022/12/15 02:40:00;;;;;;;;;44.25;24.00;;;;;0.14;63.04;100362.28;4919622;28;45345;-77
2022/12/15 02:42:27;;;;;;;;;45.75;29.00;;;;;0.10;63.19;100363.13;4919724;28;46572;-77
2022/12/15 02:45:00;;;;;;;;;36.25;26.75;;;;;0.07;63.48;100378.44;4900455;28;46040;-77
2022/12/15 02:47:33;;;;;;;;;33.25;29.00;;;;;0.04;63.02;100384.41;4900648;28;45464;-77
2022/12/15 02:50:22;;;;;;;;;31.50;26.00;;;;;0.02;63.57;100388.66;4900323;28;45621;-77
2022/12/15 02:53:19;;;;;;;;;28.25;23.00;;;;;0.02;63.16;100387.78;4915985;28;46342;-77
2022/12/15 02:56:17;;;;;;;;;28.25;25.75;;;;;0.01;63.57;100373.28;4916036;28;45491;-77
2022/12/15 02:58:51;;;;;;;;;29.75;22.50;;;;;-0.01;63.50;100360.47;4953642;28;45366;-77
2022/12/15 03:01:22;;;;;;;;;41.75;27.50;;;;;-0.03;63.55;100363.00;5011136;28;45608;-77
2022/12/15 03:03:47;;;;;;;;;38.25;25.75;;;;;-0.03;63.82;100374.94;5011279;28;46174;-77
2022/12/15 03:06:14;;;;;;;;;24.25;22.25;;;;;-0.04;63.78;100369.00;4994081;28;63809;-77
2022/12/15 03:08:39;;;;;;;;;47.50;31.50;;;;;-0.05;63.85;100372.38;4994803;28;45294;-77
2022/12/15 03:11:04;;;;;;;;;34.75;28.25;;;;;-0.08;63.73;100371.50;4994981;28;63767;-77
2022/12/15 03:13:30;;;;;;;;;32.75;24.00;;;;;-0.12;64.27;100368.03;4994022;28;60346;-77
2022/12/15 03:15:57;;;;;;;;;42.75;30.50;;;;;-0.15;63.87;100374.84;4994576;28;45394;-77
2022/12/15 03:18:22;;;;;;;;;38.25;26.00;;;;;-0.19;64.10;100376.50;4995936;28;45378;-76
2022/12/15 03:20:47;;;;;;;;;31.75;24.50;;;;;-0.21;64.33;100379.03;4995451;28;53922;-77
2022/12/15 03:23:13;;;;;;;;;34.50;27.75;;;;;-0.21;64.13;100376.47;4994663;28;46326;-77
2022/12/15 03:25:38;;;;;;;;;35.00;27.50;;;;;-0.21;64.45;100379.03;4994027;28;48887;-76
2022/12/15 03:28:04;;;;;;;;;37.50;22.25;;;;;-0.18;64.49;100375.69;4995256;28;58311;-76
2022/12/15 03:30:29;;;;;;;;;33.25;27.00;;;;;-0.16;64.41;100378.25;4995877;28;45293;-77
2022/12/15 03:32:54;;;;;;;;;34.25;26.50;;;;;-0.16;64.32;100381.66;4994642;28;68976;-77
2022/12/15 03:35:19;;;;;;;;;38.00;24.00;;;;;-0.13;64.55;100383.38;4995117;28;56236;-77
2022/12/15 03:37:45;;;;;;;;;39.25;27.50;;;;;-0.13;64.43;100370.59;4995118;28;55104;-76
2022/12/15 03:40:12;;;;;;;;;35.50;24.75;;;;;-0.13;64.25;100365.47;4995375;28;45337;-76
2022/12/15 03:42:47;;;;;;;;;38.75;30.00;;;;;-0.15;64.78;100362.88;4995498;28;45657;-76
2022/12/15 03:45:13;;;;;;;;;34.25;25.00;;;;;-0.18;64.42;100360.31;5009621;28;45891;-77
2022/12/15 03:47:42;;;;;;;;;45.25;24.00;;;;;-0.19;64.47;100353.47;4977930;28;45300;-77
2022/12/15 03:50:08;;;;;;;;;39.00;30.00;;;;;-0.20;64.36;100350.06;4995495;28;45381;-77
2022/12/15 03:52:34;;;;;;;;;43.50;30.75;;;;;-0.18;64.71;100356.91;4994231;28;45307;-77
2022/12/15 03:55:00;;;;;;;;;41.25;29.50;;;;;-0.21;64.68;100367.97;5004778;28;45968;-77
2022/12/15 03:57:26;;;;;;;;;40.00;28.00;;;;;-0.23;64.70;100373.06;5017426;28;45460;-76
2022/12/15 03:59:51;;;;;;;;;35.00;25.00;;;;;-0.23;64.57;100372.22;5034462;28;59136;-77
2022/12/15 04:02:16;;;;;;;;;38.25;27.00;;;;;-0.23;64.62;100373.06;5028740;28;66540;-77
2022/12/15 04:04:42;;;;;;;;;34.00;22.25;;;;;-0.23;64.69;100374.78;5054389;28;65028;-77
2022/12/15 04:07:08;;;;;;;;;33.50;22.50;;;;;-0.22;64.58;100390.13;5054657;28;62556;-77
2022/12/15 04:09:33;;;;;;;;;41.75;28.50;;;;;-0.18;64.70;100385.06;5054620;28;45318;-76
2022/12/15 04:12:02;;;;;;;;;34.25;27.00;;;;;-0.16;64.66;100378.25;5057899;28;46058;-77
2022/12/15 04:14:27;;;;;;;;;34.25;25.50;;;;;-0.13;64.56;100385.94;5040955;28;45877;-77
2022/12/15 04:16:52;;;;;;;;;38.25;27.50;;;;;-0.11;64.88;100380.00;5058600;28;45292;-76
2022/12/15 04:22:02;;;;;;;;;35.50;28.75;;;;;-0.07;64.49;100358.72;5058340;28;45276;-77
2022/12/15 05:32:45;;;;;;;;;41.50;26.00;;;;;-0.06;64.41;100375.75;5042174;28;45503;-77
2022/12/15 05:35:10;;;;;;;;;41.00;27.25;;;;;-0.08;64.68;100363.81;5038862;28;56352;-77
2022/12/15 05:37:36;;;;;;;;;36.00;26.50;;;;;-0.07;64.89;100371.50;5056750;28;45996;-76
2022/12/15 05:40:01;;;;;;;;;38.00;23.75;;;;;-0.05;64.75;100368.97;5056253;28;68042;-77
2022/12/15 05:42:26;;;;;;;;;35.50;28.00;;;;;-0.07;64.74;100368.09;5041020;28;46307;-77
2022/12/15 05:44:52;;;;;;;;;44.25;27.25;;;;;-0.09;64.49;100364.69;5018445;28;59094;-77
2022/12/15 05:47:17;;;;;;;;;36.25;30.00;;;;;-0.12;64.65;100362.94;5018789;28;52056;-77
2022/12/15 05:49:42;;;;;;;;;41.75;26.00;;;;;-0.14;64.41;100371.44;5036221;28;59704;-77
2022/12/15 05:52:08;;;;;;;;;40.00;30.25;;;;;-0.18;64.78;100370.56;5018065;28;62310;-76
2022/12/15 05:54:33;;;;;;;;;38.50;27.50;;;;;-0.18;64.80;100388.47;5036726;28;45407;-77
2022/12/15 05:56:59;;;;;;;;;34.00;24.75;;;;;-0.21;64.46;100384.16;5036601;28;52321;-77
2022/12/15 05:59:24;;;;;;;;;38.25;28.75;;;;;-0.23;64.71;100380.72;5036602;28;45393;-77
2022/12/15 06:01:50;;;;;;;;;41.50;27.75;;;;;-0.24;64.70;100379.03;5045404;28;45349;-77
2022/12/15 06:04:15;;;;;;;;;28.25;21.75;;;;;-0.27;64.42;100376.44;5056423;28;56072;-77
2022/12/15 06:06:41;;;;;;;;;39.75;29.50;;;;;-0.27;64.81;100376.44;5056033;28;54912;-77
2022/12/15 06:09:07;;;;;;;;;27.00;18.50;;;;;-0.27;64.53;100360.25;5056581;28;46451;-76
2022/12/15 06:11:33;;;;;;;;;36.00;25.50;;;;;-0.26;64.93;100361.94;5056908;28;45367;-76
2022/12/15 06:13:58;;;;;;;;;37.00;24.50;;;;;-0.27;64.88;100373.03;5038506;28;45428;-77
2022/12/15 06:16:25;;;;;;;;;47.50;33.75;;;;;-0.27;64.92;100385.81;5055994;28;64765;-77
2022/12/15 06:18:55;;;;;;;;;40.00;26.75;;;;;-0.31;65.11;100394.31;5056465;28;45908;-77
2022/12/15 06:21:23;;;;;;;;;39.75;28.00;;;;;-0.38;64.81;100395.09;5056323;28;45295;-77
2022/12/15 06:23:49;;;;;;;;;36.00;27.00;;;;;-0.42;64.91;100392.50;5038552;28;45310;-77
2022/12/15 06:26:21;;;;;;;;;27.00;20.50;;;;;-0.44;64.90;100393.31;5056268;28;46026;-77
2022/12/15 06:28:47;;;;;;;;;30.25;24.00;;;;;-0.44;64.91;100393.31;5056312;28;45892;-77
2022/12/15 06:31:13;;;;;;;;;33.50;25.50;;;;;-0.46;64.73;100390.75;5038233;28;45515;-77
2022/12/15 06:33:39;;;;;;;;;24.25;18.25;;;;;-0.45;64.99;100399.28;5055415;28;45367;-77
2022/12/15 06:36:14;;;;;;;;;34.50;28.50;;;;;-0.44;64.98;100403.56;5037951;28;46837;-77
2022/12/15 06:38:42;;;;;;;;;38.00;28.25;;;;;-0.47;64.88;100401.81;5055873;28;45891;-77
2022/12/15 06:41:08;;;;;;;;;32.75;24.00;;;;;-0.50;64.64;100404.34;5033306;28;45387;-78
2022/12/15 06:43:33;;;;;;;;;43.00;29.50;;;;;-0.53;65.25;100411.97;5001681;28;45463;-78
2022/12/15 06:46:00;;;;;;;;;35.00;28.00;;;;;-0.53;65.40;100414.53;5035730;28;46269;-78
2022/12/15 06:48:25;;;;;;;;;33.25;24.75;;;;;-0.54;65.95;100420.47;5035515;28;46217;-78
2022/12/15 06:50:51;;;;;;;;;40.25;27.75;;;;;-0.50;65.21;100424.81;5036038;28;45275;-75
2022/12/15 06:53:18;;;;;;;;;39.00;26.25;;;;;-0.47;65.82;100431.63;5036032;28;45246;-78
2022/12/15 06:55:44;;;;;;;;;28.25;22.00;;;;;-0.48;65.17;100423.13;5034351;28;46643;-77
2022/12/15 06:58:11;;;;;;;;;26.00;19.25;;;;;-0.46;65.24;100426.56;5017925;28;45476;-79
2022/12/15 07:00:36;;;;;;;;;36.00;24.00;;;;;-0.42;65.28;100424.88;5035803;28;45273;-77
2022/12/15 07:03:03;;;;;;;;;40.75;28.00;;;;;-0.43;65.00;100426.59;5053915;28;45340;-77
2022/12/15 07:05:28;;;;;;;;;33.00;26.25;;;;;-0.44;64.96;100426.56;5037815;28;46330;-78
2022/12/15 07:07:54;;;;;;;;;30.50;24.75;;;;;-0.46;65.02;100425.69;5055464;28;45375;-77
2022/12/15 07:10:19;;;;;;;;;34.75;26.75;;;;;-0.48;65.01;100422.28;5037174;28;48998;-77
2022/12/15 07:12:44;;;;;;;;;42.50;30.00;;;;;-0.53;64.65;100414.53;5055870;28;45366;-78
2022/12/15 07:15:10;;;;;;;;;36.00;27.25;;;;;-0.54;65.27;100419.63;5055320;28;51180;-78
2022/12/15 07:17:36;;;;;;;;;33.50;22.00;;;;;-0.55;65.06;100420.47;5055470;28;45274;-77
2022/12/15 07:20:04;;;;;;;;;27.25;22.50;;;;;-0.56;65.16;100431.53;5037583;28;45388;-77
2022/12/15 07:22:29;;;;;;;;;38.50;28.25;;;;;-0.56;65.47;100434.94;5055667;28;45347;-76
2022/12/15 07:24:54;;;;;;;;;36.50;28.50;;;;;-0.57;65.58;100445.19;5037518;28;46046;-76
2022/12/15 07:27:19;;;;;;;;;34.50;27.25;;;;;-0.57;65.22;100463.06;5055276;28;48940;-77
2022/12/15 07:29:45;;;;;;;;;38.25;26.50;;;;;-0.57;65.18;100457.97;5045661;28;59728;-76
2022/12/15 07:32:10;;;;;;;;;38.75;26.50;;;;;-0.56;65.27;100452.00;5017423;28;62044;-76
2022/12/15 07:34:35;;;;;;;;;32.00;27.00;;;;;-0.57;64.66;100455.41;5034243;28;45414;-76
2022/12/15 07:37:01;;;;;;;;;38.75;30.00;;;;;-0.60;64.76;100441.72;5034767;28;51013;-76
2022/12/15 07:39:27;;;;;;;;;36.50;28.00;;;;;-0.61;65.09;100432.34;5002760;28;63726;-76
2022/12/15 07:41:52;;;;;;;;;46.75;31.00;;;;;-0.60;65.48;100434.03;5034572;28;45464;-76
2022/12/15 07:44:17;;;;;;;;;41.75;32.00;;;;;-0.55;65.31;100434.13;5033120;28;64231;-77
2022/12/15 07:46:45;;;;;;;;;50.75;31.25;;;;;-0.52;65.34;100439.28;5020110;28;45450;-76
2022/12/15 07:49:12;;;;;;;;;37.50;31.50;;;;;-0.49;65.24;100453.78;5037763;28;45305;-76
2022/12/15 07:51:37;;;;;;;;;34.50;28.00;;;;;-0.49;65.41;100444.41;5038371;28;45532;-76
2022/12/15 07:54:03;;;;;;;;;43.50;29.50;;;;;-0.45;65.45;100448.72;5019720;28;61244;-76
2022/12/15 07:56:28;;;;;;;;;36.50;27.25;;;;;-0.39;65.46;100450.47;5037758;28;45418;-77
2022/12/15 07:58:53;;;;;;;;;49.00;33.75;;;;;-0.33;64.98;100467.63;5037278;28;45371;-77
2022/12/15 08:01:19;;;;;;;;;47.50;31.00;;;;;-0.30;64.86;100465.91;5042263;28;45378;-76
2022/12/15 08:03:44;;;;;;;;;46.25;35.00;;;;;-0.28;64.96;100463.38;5043550;28;45412;-78
2022/12/15 08:06:11;;;;;;;;;40.75;27.25;;;;;-0.23;65.24;100470.25;5037953;28;45851;-77
2022/12/15 08:08:37;;;;;;;;;36.25;28.00;;;;;-0.16;64.99;100472.91;5037504;28;45338;-78
2022/12/15 08:11:05;;;;;;;;;25.00;13.25;;;;;-0.09;64.89;100472.13;5032455;28;45416;-78
2022/12/15 08:13:30;;;;;;;;;29.75;23.75;;;;;-0.03;64.54;100477.31;5008148;28;46215;-77
2022/12/15 08:15:55;;;;;;;;;37.00;28.25;;;;;0.03;64.74;100486.75;5032090;28;49348;-77
2022/12/15 08:18:21;;;;;;;;;42.50;32.00;;;;;0.08;65.12;100491.06;5020893;28;45662;-77
2022/12/15 08:20:46;;;;;;;;;42.75;32.00;;;;;0.15;64.81;100495.41;5037017;28;60872;-77
2022/12/15 08:23:11;;;;;;;;;44.00;33.75;;;;;0.18;64.62;100494.56;5036658;28;67017;-77
2022/12/15 08:25:36;;;;;;;;;52.75;33.50;;;;;0.24;64.76;100506.56;5037127;28;53755;-76
2022/12/15 08:28:03;;;;;;;;;39.75;24.00;;;;;0.30;64.65;100506.66;5025565;28;61031;-76
2022/12/15 08:30:29;;;;;;;;;32.50;25.25;;;;;0.33;64.20;100509.22;5037408;28;45432;-76
2022/12/15 08:32:54;;;;;;;;;36.25;27.25;;;;;0.35;64.33;100521.22;5034547;28;45368;-78
2022/12/15 08:35:19;;;;;;;;;44.75;34.00;;;;;0.38;64.32;100522.91;5023626;28;67645;-78
2022/12/15 08:37:45;;;;;;;;;39.25;26.50;;;;;0.40;63.88;100512.69;5034797;28;45767;-78
2022/12/15 08:40:11;;;;;;;;;47.25;32.75;;;;;0.37;63.73;100516.06;5037692;28;45551;-78
2022/12/15 08:42:37;;;;;;;;;37.75;27.75;;;;;0.38;63.88;100510.97;5025067;28;45597;-78
2022/12/15 08:45:03;;;;;;;;;33.25;25.50;;;;;0.37;63.63;100506.72;5036935;28;45343;-75
2022/12/15 08:47:29;;;;;;;;;37.50;26.50;;;;;0.38;63.60;100505.84;5037375;28;45507;-78
2022/12/15 08:49:54;;;;;;;;;36.00;30.25;;;;;0.37;63.37;100501.59;5037154;28;45512;-79
2022/12/15 08:52:20;;;;;;;;;45.25;33.00;;;;;0.35;63.50;100495.59;5037119;28;45346;-78
2022/12/15 08:54:46;;;;;;;;;43.00;31.50;;;;;0.37;63.36;100490.47;5036787;28;45603;-78
2022/12/15 08:57:11;;;;;;;;;41.00;29.50;;;;;0.37;63.51;100495.59;5036269;28;45263;-76
2022/12/15 08:59:37;;;;;;;;;41.50;32.25;;;;;0.37;63.19;100504.16;5036367;28;45418;-78
2022/12/15 09:02:02;;;;;;;;;42.50;33.00;;;;;0.36;63.18;100502.41;5047340;28;46026;-76
2022/12/15 09:04:28;;;;;;;;;47.50;31.75;;;;;0.39;63.25;100511.84;5056742;28;55064;-78
2022/12/15 09:06:53;;;;;;;;;37.75;32.00;;;;;0.41;63.29;100510.16;5041814;28;45243;-79
2022/12/15 09:09:18;;;;;;;;;40.50;33.25;;;;;0.45;63.27;100511.91;5034497;28;57410;-78
2022/12/15 09:11:44;;;;;;;;;36.00;30.00;;;;;0.49;63.09;100512.78;5029673;28;67746;-78
2022/12/15 09:14:09;;;;;;;;;46.00;31.25;;;;;0.52;63.24;100513.66;5032822;28;58391;-79
2022/12/15 09:16:35;;;;;;;;;42.25;34.00;;;;;0.58;63.08;100517.97;5041655;28;45396;-79
2022/12/15 09:19:01;;;;;;;;;36.00;19.25;;;;;0.66;63.27;100518.03;5034469;28;45314;-80
2022/12/15 09:21:28;;;;;;;;;32.75;28.25;;;;;0.75;63.06;100516.41;5033918;28;45594;-79
2022/12/15 09:23:59;;;;;;;;;45.25;31.75;;;;;0.81;63.38;100514.75;5018531;28;45947;-79
2022/12/15 09:26:25;;;;;;;;;38.25;33.00;;;;;0.88;62.97;100516.50;5036564;28;45345;-79
2022/12/15 09:28:50;;;;;;;;;46.75;34.00;;;;;0.94;62.88;100512.25;5017741;28;45623;-78
2022/12/15 09:31:21;;;;;;;;;38.50;30.50;;;;;1.02;62.71;100520.00;5023453;28;46244;-78
2022/12/15 09:33:49;;;;;;;;;32.25;27.00;;;;;1.11;63.02;100514.94;5035402;28;45396;-79
2022/12/15 09:36:15;;;;;;;;;39.00;24.75;;;;;1.20;62.77;100516.69;5035514;28;45602;-77
2022/12/15 09:38:42;;;;;;;;;37.00;30.75;;;;;1.30;62.29;100518.47;5035128;28;45589;-79
2022/12/15 09:41:16;;;;;;;;;54.00;32.50;;;;;1.38;62.22;100520.25;5035639;28;46595;-79
2022/12/15 09:43:51;;;;;;;;;57.25;41.00;;;;;1.43;61.94;100529.66;5035244;28;45810;-79
2022/12/15 09:46:22;;;;;;;;;41.50;30.50;;;;;1.46;61.44;100521.13;5017617;28;45345;-79
2022/12/15 09:48:49;;;;;;;;;42.00;36.75;;;;;1.47;61.14;100521.13;5035610;28;45373;-79
2022/12/15 09:51:16;;;;;;;;;42.75;31.00;;;;;1.51;60.85;100527.13;5016215;28;65093;-79
2022/12/15 09:53:41;;;;;;;;;50.00;37.75;;;;;1.49;61.29;100536.53;5017072;28;45983;-79
2022/12/15 09:56:17;;;;;;;;;38.00;33.00;;;;;1.52;61.06;100529.72;5016995;28;58551;-77
2022/12/15 09:58:54;;;;;;;;;52.50;38.00;;;;;1.60;61.10;100524.63;5017496;28;45528;-79
2022/12/15 10:01:30;;;;;;;;;51.00;28.50;;;;;1.74;61.26;100530.63;5033509;28;46293;-79
2022/12/15 10:04:27;;;;;;;;;52.50;36.75;;;;;1.85;61.09;100532.41;5010985;28;46014;-79
2022/12/15 10:07:07;;;;;;;;;49.50;34.25;;;;;1.93;60.85;100534.16;5032851;28;45547;-78
2022/12/15 10:09:33;;;;;;;;;55.00;36.75;;;;;2.04;60.72;100530.75;5033456;28;45612;-79
2022/12/15 10:11:59;;;;;;;;;52.50;40.50;;;;;2.17;60.83;100526.50;5016757;28;46867;-79
2022/12/15 10:14:44;;;;;;;;;62.00;41.50;;;;;2.28;60.71;100524.81;5018247;28;45929;-78
2022/12/15 10:17:18;;;;;;;;;47.75;33.25;;;;;2.32;59.88;100529.97;5001713;28;45394;-79
2022/12/15 10:19:49;;;;;;;;;42.00;30.50;;;;;2.35;59.80;100534.22;5016784;28;45545;-79
2022/12/15 10:22:32;;;;;;;;;56.75;38.25;;;;;2.45;60.13;100530.84;5031243;28;46946;-79
2022/12/15 10:25:16;;;;;;;;;52.25;35.00;;;;;2.56;59.73;100527.41;5016714;28;46035;-79
2022/12/15 10:28:04;;;;;;;;;43.75;36.00;;;;;2.64;59.20;100528.28;5032955;28;45375;-79
2022/12/15 10:30:30;;;;;;;;;41.00;25.50;;;;;2.67;58.86;100515.41;5017280;28;46739;-79
2022/12/15 10:33:04;;;;;;;;;44.25;33.25;;;;;2.70;58.99;100516.25;5016080;28;63903;-79
2022/12/15 10:35:35;;;;;;;;;52.50;35.50;;;;;2.72;58.49;100506.84;5032563;28;45388;-80
2022/12/15 10:38:04;;;;;;;;;47.50;34.25;;;;;2.79;58.49;100506.84;5024948;28;45556;-80
2022/12/15 10:40:52;;;;;;;;;55.75;41.75;;;;;2.82;58.40;100491.41;5030199;28;45535;-79
2022/12/15 10:43:39;;;;;;;;;52.25;32.75;;;;;2.91;58.66;100488.81;5023397;28;46338;-79
2022/12/15 10:46:17;;;;;;;;;48.25;31.50;;;;;3.02;58.58;100499.94;5010678;28;45482;-79
2022/12/15 10:48:44;;;;;;;;;46.00;39.00;;;;;3.08;57.92;100493.94;5016880;28;45375;-77
2022/12/15 10:51:12;;;;;;;;;55.00;39.25;;;;;3.18;57.85;100489.66;5018415;28;45557;-78
2022/12/15 10:53:39;;;;;;;;;41.25;33.50;;;;;3.26;57.77;100486.19;5034206;28;46151;-77
2022/12/15 10:56:05;;;;;;;;;36.00;31.50;;;;;3.30;57.22;100484.44;5012211;28;45918;-79
2022/12/15 10:58:30;;;;;;;;;28.50;26.00;;;;;3.28;57.27;100484.44;5016797;28;45363;-79
2022/12/15 11:01:13;;;;;;;;;52.25;41.75;;;;;3.32;56.94;100481.88;5017089;28;60679;-79
2022/12/15 11:03:38;;;;;;;;;45.75;36.00;;;;;3.35;56.79;100472.44;5047389;28;46873;-80
2022/12/15 11:06:13;;;;;;;;;47.50;30.50;;;;;3.43;56.62;100459.53;5034426;28;45488;-79
2022/12/15 11:08:40;;;;;;;;;54.25;37.50;;;;;3.57;56.68;100454.34;5017502;28;46616;-81
2022/12/15 11:14:19;;;;;;;;;45.25;32.75;;;;;4.43;55.89;100454.63;5032924;28;45841;-79
2022/12/15 11:16:50;;;;;;;;;38.50;30.75;;;;;4.93;55.44;100454.19;5034122;28;46062;-79
2022/12/15 11:19:24;;;;;;;;;48.25;37.75;;;;;5.35;54.87;100442.53;5034176;28;45463;-80
2022/12/15 11:21:55;;;;;;;;;43.00;34.00;;;;;5.52;54.28;100442.31;5033452;28;45510;-79
2022/12/15 11:24:32;;;;;;;;;24.25;22.25;;;;;5.42;52.84;100443.28;5009032;28;45462;-80
2022/12/15 11:27:22;;;;;;;;;45.25;31.75;;;;;5.35;53.01;100436.50;5016938;28;45821;-78
2022/12/15 11:29:58;;;;;;;;;47.00;32.25;;;;;5.32;52.47;100437.41;5029772;28;45662;-79
2022/12/15 11:32:28;;;;;;;;;45.25;32.00;;;;;5.17;52.20;100422.94;5016807;28;45668;-80
2022/12/15 11:34:54;;;;;;;;;48.75;36.00;;;;;5.03;52.45;100419.66;5016049;28;45405;-75
2022/12/15 11:37:37;;;;;;;;;36.00;31.25;;;;;4.93;51.87;100402.59;5015903;28;55761;-79
2022/12/15 11:40:09;;;;;;;;;39.25;28.50;;;;;4.77;52.02;100387.31;5015435;28;45467;-79
2022/12/15 11:42:52;;;;;;;;;42.50;33.75;;;;;4.66;52.67;100386.53;5031697;28;45514;-79
2022/12/15 11:45:30;;;;;;;;;38.50;29.50;;;;;4.61;52.18;100381.44;5033623;28;46760;-78
2022/12/15 11:48:05;;;;;;;;;44.50;31.50;;;;;4.53;52.18;100382.38;5020484;28;45406;-77
2022/12/15 11:50:41;;;;;;;;;38.50;27.75;;;;;4.50;52.13;100378.13;5016474;28;45466;-77
2022/12/15 11:53:29;;;;;;;;;47.25;34.50;;;;;4.64;52.71;100384.00;5033413;28;45694;-79
2022/12/15 11:56:14;;;;;;;;;34.50;30.25;;;;;4.95;52.02;100377.63;5028687;28;47130;-78
2022/12/15 11:59:01;;;;;;;;;41.75;31.25;;;;;5.78;51.96;100371.38;5033479;28;45808;-77
2022/12/15 12:01:29;;;;;;;;;40.00;29.50;;;;;6.48;51.05;100364.25;5039500;28;45424;-78
2022/12/15 12:04:03;;;;;;;;;40.00;33.50;;;;;7.11;50.03;100351.78;5037539;28;45348;-78
2022/12/15 12:06:39;;;;;;;;;44.75;32.75;;;;;7.87;49.04;100349.22;5033966;28;46602;-79
2022/12/15 12:09:23;;;;;;;;;46.75;30.25;;;;;8.72;48.05;100350.53;5032962;28;45501;-79
2022/12/15 12:12:10;;;;;;;;;45.25;26.25;;;;;9.46;45.46;100348.41;5031339;28;45575;-80
2022/12/15 12:14:57;;;;;;;;;42.25;29.25;;;;;10.13;45.09;100354.13;4999372;28;45638;-79
2022/12/15 12:18:03;;;;;;;;;35.75;26.00;;;;;10.69;43.86;100353.94;5033460;28;46213;-80
2022/12/15 12:21:04;;;;;;;;;35.50;23.50;;;;;11.52;42.82;100337.00;4924115;28;45629;-80
2022/12/15 12:23:37;;;;;;;;;34.00;24.75;;;;;12.47;42.87;100327.88;4924695;28;45786;-80
2022/12/15 12:26:02;;;;;;;;;41.25;26.00;;;;;13.26;40.93;100322.63;4933376;28;45921;-80
2022/12/15 12:28:57;;;;;;;;;37.00;29.67;;;;;14.09;40.27;100326.47;4933221;28;45436;-80
2022/12/15 12:31:50;;;;;;;;;35.50;27.75;;;;;14.84;38.43;100319.16;4894628;28;45539;-80
2022/12/15 12:34:54;;;;;;;;;31.50;23.25;;;;;15.40;37.84;100319.63;4898075;28;45731;-79
2022/12/15 12:37:24;;;;;;;;;33.75;29.25;;;;;15.30;36.74;100318.44;4835539;29;45496;-81
2022/12/15 12:39:51;;;;;;;;;32.00;25.50;;;;;15.02;35.77;100316.47;4841671;29;46486;-81
2022/12/15 12:42:21;;;;;;;;;37.00;27.50;;;;;14.90;35.58;100310.97;4842793;29;45515;-80
2022/12/15 12:44:47;;;;;;;;;36.00;28.25;;;;;14.98;35.52;100317.56;4841892;29;45469;-80
2022/12/15 12:47:18;;;;;;;;;36.50;28.00;;;;;15.09;35.14;100313.44;4841459;29;45608;-79
2022/12/15 12:49:50;;;;;;;;;32.25;26.00;;;;;14.71;35.14;100305.03;4841935;29;46253;-80
2022/12/15 12:52:20;;;;;;;;;40.75;28.50;;;;;14.72;35.33;100306.72;4840170;29;45438;-80
2022/12/15 12:55:08;;;;;;;;;42.25;32.50;;;;;15.25;35.59;100297.72;4841618;29;45506;-80
2022/12/15 12:57:39;;;;;;;;;29.50;23.00;;;;;15.90;35.57;100293.22;4856621;29;45600;-80
2022/12/15 13:00:07;;;;;;;;;39.25;31.00;;;;;16.14;35.17;100296.19;4853072;29;46163;-78
2022/12/15 13:02:41;;;;;;;;;34.75;29.25;;;;;16.36;34.52;100301.03;4869336;29;45439;-81
2022/12/15 13:05:24;;;;;;;;;38.75;30.50;;;;;16.38;34.25;100299.16;4860256;29;45422;-80
2022/12/15 13:08:04;;;;;;;;;39.50;27.00;;;;;16.52;33.92;100295.69;4885829;28;45446;-81
2022/12/15 13:10:36;;;;;;;;;28.50;25.50;;;;;16.36;33.31;100298.41;4917598;28;47109;-80
2022/12/15 13:13:07;;;;;;;;;31.75;28.25;;;;;16.22;32.53;100301.84;4936258;28;45888;-79
2022/12/15 13:15:37;;;;;;;;;38.00;30.00;;;;;16.17;32.54;100296.03;5033960;28;46568;-80
2022/12/15 13:18:16;;;;;;;;;40.75;34.25;;;;;16.24;33.53;100298.19;5027206;28;45481;-80
2022/12/15 13:20:43;;;;;;;;;33.00;27.75;;;;;16.37;33.09;100298.31;5035841;28;46670;-79
2022/12/15 13:23:20;;;;;;;;;46.50;35.00;;;;;16.36;32.66;100306.28;5011085;28;45731;-80
2022/12/15 13:25:52;;;;;;;;;33.50;27.25;;;;;16.21;32.85;100314.16;5033806;28;45530;-80
2022/12/15 13:28:23;;;;;;;;;41.25;35.25;;;;;15.92;32.82;100312.38;5032937;28;45514;-81
2022/12/15 13:31:19;;;;;;;;;33.25;28.75;;;;;15.80;31.97;100300.81;5035743;28;46356;-81
2022/12/15 13:33:47;;;;;;;;;19.00;10.25;;;;;15.80;31.86;100312.13;5032962;28;45743;-80
2022/12/15 13:36:38;;;;;;;;;42.50;30.25;;;;;15.96;31.55;100304.22;5033759;28;46823;-80
2022/12/15 13:39:26;;;;;;;;;38.75;30.00;;;;;16.25;32.31;100304.28;5038233;28;45333;-79
2022/12/15 13:41:51;;;;;;;;;39.00;32.75;;;;;15.78;31.33;100292.19;5036690;28;46636;-80
2022/12/15 13:44:23;;;;;;;;;41.00;34.00;;;;;14.85;31.19;100292.03;5041343;28;45602;-81
2022/12/15 13:46:51;;;;;;;;;31.75;27.50;;;;;14.24;31.96;100295.22;5036186;28;45447;-81
2022/12/15 13:49:28;;;;;;;;;37.00;24.00;;;;;14.13;32.89;100288.78;5041722;28;45445;-81
2022/12/15 13:52:11;;;;;;;;;32.00;25.75;;;;;14.23;32.04;100283.06;5039350;28;46327;-80
2022/12/15 13:54:43;;;;;;;;;32.00;24.75;;;;;14.10;31.68;100277.59;5030079;28;45484;-80